Time;durP1;ratioP1;P1;durP2;ratioP2;P2;SDS_P1;SDS_P2;PMS_P1;PMS_P2;Temp;Humidity;BMP_temperature;BMP_pressure;BME280_temperature;BME280_humidity;BME280_pressure;Samples;Min_cycle;Max_cycle;Signal;HPM_P1;HPM_P2
2021/09/02 00:01:28;;;;;;;20.43;8.57;;;18.10;99.90;;;;;;4974583;28;20185;-79
2021/09/02 00:03:54;;;;;;;16.23;7.20;;;18.20;99.90;;;;;;4958008;28;20206;-78
2021/09/02 00:06:20;;;;;;;21.73;8.07;;;18.10;99.90;;;;;;4974138;28;20214;-78
2021/09/02 00:08:45;;;;;;;17.03;7.60;;;18.00;99.90;;;;;;4954002;28;20187;-78
2021/09/02 00:11:11;;;;;;;16.97;7.43;;;18.00;99.90;;;;;;4974108;28;20225;-78
2021/09/02 00:13:37;;;;;;;19.50;7.90;;;18.10;99.90;;;;;;4971928;28;20189;-79
2021/09/02 00:16:03;;;;;;;18.33;8.20;;;18.10;99.90;;;;;;4940453;28;20720;-78
2021/09/02 00:18:29;;;;;;;16.37;7.83;;;18.10;99.90;;;;;;4975797;28;20723;-78
2021/09/02 00:20:54;;;;;;;17.40;7.73;;;18.00;99.90;;;;;;4973943;28;20226;-78
2021/09/02 00:23:20;;;;;;;17.80;7.37;;;18.00;99.90;;;;;;4972944;28;20267;-78
2021/09/02 00:25:46;;;;;;;17.50;7.30;;;18.00;99.90;;;;;;4973211;28;20353;-80
2021/09/02 00:28:12;;;;;;;17.77;7.73;;;18.00;99.90;;;;;;4975523;28;20197;-80
2021/09/02 00:30:37;;;;;;;16.67;7.47;;;18.00;99.90;;;;;;4941712;28;20183;-80
2021/09/02 00:33:03;;;;;;;18.20;7.03;;;18.10;99.90;;;;;;4971180;28;20296;-80
2021/09/02 00:35:29;;;;;;;13.53;6.40;;;18.10;99.90;;;;;;4958394;28;20214;-80
2021/09/02 00:37:55;;;;;;;17.20;8.10;;;18.00;99.90;;;;;;4974666;28;20187;-79
2021/09/02 00:40:20;;;;;;;16.70;7.53;;;17.90;99.90;;;;;;4957370;28;20190;-78
2021/09/02 00:42:46;;;;;;;14.77;7.23;;;17.90;99.90;;;;;;4942788;28;20190;-78
2021/09/02 00:45:12;;;;;;;17.90;7.33;;;17.90;99.90;;;;;;4957453;28;20194;-79
2021/09/02 00:47:38;;;;;;;18.33;7.60;;;17.80;99.90;;;;;;4975856;28;20200;-79
2021/09/02 00:50:05;;;;;;;18.90;7.83;;;17.90;99.90;;;;;;4973308;28;20260;-80
2021/09/02 00:52:32;;;;;;;18.10;7.37;;;17.80;99.90;;;;;;4975408;28;20231;-79
2021/09/02 00:55:01;;;;;;;17.23;7.23;;;17.80;99.90;;;;;;4975377;28;20182;-80
2021/09/02 00:57:28;;;;;;;16.43;7.00;;;17.80;99.90;;;;;;4972150;28;20190;-79
2021/09/02 00:59:59;;;;;;;17.43;7.10;;;17.70;99.90;;;;;;4959122;28;20656;-79
2021/09/02 01:02:26;;;;;;;15.40;6.67;;;17.60;99.90;;;;;;4959411;28;20200;-79
2021/09/02 01:04:55;;;;;;;15.70;7.00;;;17.70;99.90;;;;;;4972676;28;20639;-80
2021/09/02 01:07:24;;;;;;;18.53;7.17;;;17.70;99.90;;;;;;4973459;28;20207;-79
2021/09/02 01:09:53;;;;;;;18.87;7.30;;;17.80;99.90;;;;;;4971980;28;20309;-79
2021/09/02 01:12:46;;;;;;;14.73;6.60;;;17.80;99.90;;;;;;4974129;28;20179;-80
2021/09/02 01:15:30;;;;;;;16.47;6.77;;;17.70;99.90;;;;;;4973902;28;20190;-80
2021/09/02 01:17:58;;;;;;;16.27;7.73;;;17.70;99.90;;;;;;4973786;28;20573;-80
2021/09/02 01:20:27;;;;;;;18.87;7.20;;;17.70;99.90;;;;;;4974590;28;20183;-80
2021/09/02 01:22:55;;;;;;;15.77;7.17;;;17.60;99.90;;;;;;4975376;28;20189;-80
2021/09/02 01:25:23;;;;;;;14.93;6.47;;;17.70;99.90;;;;;;4970994;28;20186;-79
2021/09/02 01:27:55;;;;;;;16.73;6.80;;;17.80;99.90;;;;;;4956909;28;20266;-80
2021/09/02 01:30:22;;;;;;;18.20;6.67;;;17.70;99.90;;;;;;4967663;28;20598;-79
2021/09/02 01:32:49;;;;;;;16.47;6.67;;;17.70;99.90;;;;;;4971848;28;20237;-79
2021/09/02 01:35:17;;;;;;;17.67;6.93;;;17.70;99.90;;;;;;4942324;28;20213;-79
2021/09/02 01:37:49;;;;;;;16.53;6.60;;;17.70;99.90;;;;;;4971598;28;20644;-80
2021/09/02 01:40:22;;;;;;;16.40;6.57;;;17.80;99.90;;;;;;4973417;28;20209;-80
2021/09/02 01:42:48;;;;;;;17.93;6.67;;;17.80;99.90;;;;;;4970669;28;20198;-80
2021/09/02 01:45:15;;;;;;;16.83;6.23;;;17.90;99.90;;;;;;4973728;28;20190;-80
2021/09/02 01:47:42;;;;;;;16.63;7.07;;;17.80;99.90;;;;;;4970621;28;20202;-82
2021/09/02 01:50:28;;;;;;;16.57;6.50;;;17.80;99.90;;;;;;4972337;28;20185;-80
2021/09/02 01:52:59;;;;;;;19.17;6.80;;;17.80;99.90;;;;;;4968276;28;20237;-80
2021/09/02 01:55:26;;;;;;;15.77;6.77;;;17.80;99.90;;;;;;4935661;29;20187;-78
2021/09/02 01:57:53;;;;;;;16.67;6.50;;;17.80;99.90;;;;;;4928274;28;20218;-79
2021/09/02 02:00:21;;;;;;;17.43;6.60;;;17.70;99.90;;;;;;4962244;28;20213;-79
2021/09/02 02:02:47;;;;;;;17.30;7.00;;;17.70;99.90;;;;;;4953071;28;20233;-80
2021/09/02 02:05:13;;;;;;;15.60;7.30;;;17.70;99.90;;;;;;4952449;28;20603;-80
2021/09/02 02:07:40;;;;;;;19.53;7.23;;;17.70;99.90;;;;;;4947914;28;20189;-79
2021/09/02 02:10:10;;;;;;;16.53;6.90;;;17.60;99.90;;;;;;4953207;28;20182;-80
2021/09/02 02:12:35;;;;;;;20.40;7.20;;;17.50;99.90;;;;;;4967819;28;20226;-80
2021/09/02 02:15:01;;;;;;;16.40;7.07;;;17.50;99.90;;;;;;4919430;29;20650;-80
2021/09/02 02:17:27;;;;;;;16.00;7.10;;;17.60;99.90;;;;;;4956661;28;20181;-79
2021/09/02 02:19:53;;;;;;;18.03;6.87;;;17.60;99.90;;;;;;4964477;28;20221;-80
2021/09/02 02:22:20;;;;;;;16.37;7.07;;;17.50;99.90;;;;;;4931081;29;20211;-80
2021/09/02 02:24:47;;;;;;;19.70;7.33;;;17.50;99.90;;;;;;4967077;28;20244;-80
2021/09/02 02:27:13;;;;;;;17.37;7.03;;;17.60;99.90;;;;;;4955739;28;20211;-80
2021/09/02 02:29:39;;;;;;;16.23;6.70;;;17.50;99.90;;;;;;4952903;28;20721;-80
2021/09/02 02:32:05;;;;;;;18.77;6.70;;;17.30;99.90;;;;;;4946138;28;20265;-80
2021/09/02 02:34:31;;;;;;;15.57;7.13;;;17.40;99.90;;;;;;4935905;29;20286;-81
2021/09/02 02:36:56;;;;;;;16.17;6.70;;;17.30;99.90;;;;;;4953676;28;20285;-80
2021/09/02 02:39:23;;;;;;;24.10;7.07;;;17.30;99.90;;;;;;4945602;28;21695;-80
2021/09/02 02:41:49;;;;;;;19.83;6.97;;;17.40;99.90;;;;;;4949694;28;20320;-81
2021/09/02 02:44:15;;;;;;;15.87;6.83;;;17.30;99.90;;;;;;4945366;28;20275;-80
2021/09/02 02:46:41;;;;;;;14.77;6.60;;;17.10;99.90;;;;;;4953168;28;20207;-80
2021/09/02 02:49:06;;;;;;;19.73;7.13;;;17.10;99.90;;;;;;4935602;28;20181;-80
2021/09/02 02:51:34;;;;;;;16.93;6.83;;;17.00;99.90;;;;;;4952773;28;20182;-80
2021/09/02 02:54:00;;;;;;;17.43;7.53;;;16.90;99.90;;;;;;4957664;28;20239;-80
2021/09/02 02:56:26;;;;;;;18.33;6.80;;;16.80;99.90;;;;;;4950333;28;20185;-81
2021/09/02 02:58:52;;;;;;;18.27;7.43;;;16.90;99.90;;;;;;4935604;29;20563;-80
2021/09/02 03:01:19;;;;;;;17.93;7.20;;;16.80;99.90;;;;;;4919305;29;20190;-80
2021/09/02 03:03:44;;;;;;;17.53;7.27;;;16.70;99.90;;;;;;4952479;28;20202;-80
2021/09/02 03:06:12;;;;;;;19.23;7.30;;;16.60;99.90;;;;;;4947471;28;20261;-80
2021/09/02 03:08:38;;;;;;;18.83;8.23;;;16.50;99.90;;;;;;4932001;28;20609;-80
2021/09/02 03:11:05;;;;;;;18.63;7.50;;;16.50;99.90;;;;;;4957011;28;20188;-80
2021/09/02 03:13:31;;;;;;;17.20;7.80;;;16.50;99.90;;;;;;4949851;28;20253;-80
2021/09/02 03:15:57;;;;;;;17.67;7.60;;;16.50;99.90;;;;;;4950793;28;20197;-81
2021/09/02 03:18:23;;;;;;;19.13;8.00;;;16.30;99.90;;;;;;4967648;28;20294;-80
2021/09/02 03:20:49;;;;;;;16.67;8.03;;;16.30;99.90;;;;;;4949193;28;20214;-80
2021/09/02 03:23:14;;;;;;;17.77;7.97;;;16.30;99.90;;;;;;4952919;28;20200;-80
2021/09/02 03:25:41;;;;;;;16.80;7.23;;;16.20;99.90;;;;;;4928967;29;20209;-81
2021/09/02 03:28:08;;;;;;;17.27;7.73;;;16.20;99.90;;;;;;4951964;28;20711;-81
2021/09/02 03:30:33;;;;;;;14.97;7.60;;;16.10;99.90;;;;;;4945067;28;20222;-80
2021/09/02 03:32:59;;;;;;;19.10;7.93;;;16.10;99.90;;;;;;4959267;28;20239;-80
2021/09/02 03:35:25;;;;;;;21.03;7.67;;;16.00;99.90;;;;;;4951431;28;20179;-80
2021/09/02 03:37:51;;;;;;;16.30;7.50;;;16.00;99.90;;;;;;4967903;28;20197;-80
2021/09/02 03:40:16;;;;;;;19.03;7.83;;;16.00;99.90;;;;;;4952269;28;20178;-80
2021/09/02 03:42:42;;;;;;;21.30;8.90;;;15.90;99.90;;;;;;4942836;28;20205;-80
2021/09/02 03:45:08;;;;;;;17.13;8.20;;;15.90;99.90;;;;;;4954772;28;20189;-80
2021/09/02 03:47:35;;;;;;;16.40;8.00;;;15.90;99.90;;;;;;4951808;28;20267;-80
2021/09/02 03:50:02;;;;;;;17.47;8.00;;;15.80;99.90;;;;;;4959853;28;20182;-80
2021/09/02 03:52:28;;;;;;;20.93;8.17;;;15.70;99.90;;;;;;4948125;28;20274;-80
2021/09/02 03:54:54;;;;;;;21.77;8.20;;;15.70;99.90;;;;;;4948501;28;20199;-80
2021/09/02 03:57:20;;;;;;;19.00;8.33;;;15.70;99.90;;;;;;4932728;29;20206;-80
2021/09/02 03:59:46;;;;;;;20.87;8.50;;;15.60;99.90;;;;;;4924900;29;20197;-80
2021/09/02 04:02:11;;;;;;;18.60;8.77;;;15.60;99.90;;;;;;4930802;29;20201;-80
2021/09/02 04:04:37;;;;;;;17.40;8.77;;;15.60;99.90;;;;;;4932829;29;20185;-80
2021/09/02 04:07:05;;;;;;;21.90;9.40;;;15.60;99.90;;;;;;4928950;29;20203;-81
2021/09/02 04:09:31;;;;;;;17.17;8.97;;;15.60;99.90;;;;;;4936131;29;20216;-80
2021/09/02 04:11:57;;;;;;;20.83;9.17;;;15.60;99.90;;;;;;4920518;29;20196;-80
2021/09/02 04:14:23;;;;;;;22.53;9.27;;;15.50;99.90;;;;;;4918823;29;20186;-81
2021/09/02 04:16:49;;;;;;;20.90;9.60;;;15.50;99.90;;;;;;4913846;29;20659;-81
2021/09/02 04:19:14;;;;;;;19.83;9.67;;;15.40;99.90;;;;;;4935950;29;20188;-80
2021/09/02 04:21:40;;;;;;;22.67;9.77;;;15.50;99.90;;;;;;4938331;28;20208;-80
2021/09/02 04:24:06;;;;;;;20.27;9.80;;;15.50;99.90;;;;;;4937162;29;20191;-80
2021/09/02 04:26:32;;;;;;;20.73;9.77;;;15.50;99.90;;;;;;4936766;29;20213;-80
2021/09/02 04:28:57;;;;;;;21.43;10.57;;;15.40;99.90;;;;;;4934175;29;20557;-80
2021/09/02 04:31:23;;;;;;;21.67;10.00;;;15.40;99.90;;;;;;4915894;29;20197;-80
2021/09/02 04:33:49;;;;;;;23.43;10.73;;;15.40;99.90;;;;;;4935320;29;20185;-81
2021/09/02 04:36:14;;;;;;;19.70;10.83;;;15.40;99.90;;;;;;4930050;29;20196;-81
2021/09/02 04:38:40;;;;;;;22.73;11.20;;;15.50;99.90;;;;;;4918494;29;20200;-81
2021/09/02 04:41:06;;;;;;;23.97;10.43;;;15.50;99.90;;;;;;4940271;29;20232;-80
2021/09/02 04:43:32;;;;;;;22.17;11.00;;;15.40;99.90;;;;;;4919769;29;20212;-78
2021/09/02 04:45:58;;;;;;;21.33;10.03;;;15.30;99.90;;;;;;4965718;28;20216;-80
2021/09/02 04:48:23;;;;;;;21.47;10.37;;;15.30;99.90;;;;;;4941855;29;20197;-81
2021/09/02 04:50:51;;;;;;;22.17;10.70;;;15.30;99.90;;;;;;4938353;29;20215;-80
2021/09/02 04:53:18;;;;;;;23.77;10.70;;;15.30;99.90;;;;;;4934615;28;20220;-80
2021/09/02 04:55:44;;;;;;;19.33;9.90;;;15.20;99.90;;;;;;4969646;28;20657;-80
2021/09/02 04:58:11;;;;;;;23.60;10.53;;;15.10;99.90;;;;;;4973554;28;20193;-80
2021/09/02 05:00:38;;;;;;;22.83;10.20;;;15.00;99.90;;;;;;4976030;28;20273;-80
2021/09/02 05:03:04;;;;;;;23.07;11.50;;;15.00;99.90;;;;;;4972949;28;20292;-81
2021/09/02 05:05:31;;;;;;;20.63;10.47;;;15.00;99.90;;;;;;4975157;28;20197;-81
2021/09/02 05:07:57;;;;;;;23.23;10.20;;;15.10;99.90;;;;;;4976827;28;20222;-80
2021/09/02 05:10:24;;;;;;;21.73;10.40;;;15.10;99.90;;;;;;4941275;28;20220;-80
2021/09/02 05:12:50;;;;;;;23.27;10.33;;;15.00;99.90;;;;;;4927805;28;20208;-81
2021/09/02 05:15:17;;;;;;;27.67;11.07;;;15.10;99.90;;;;;;4972572;28;20686;-81
2021/09/02 05:17:44;;;;;;;25.80;12.07;;;15.20;99.90;;;;;;4970405;28;20195;-80
2021/09/02 05:20:10;;;;;;;21.97;12.00;;;15.30;99.90;;;;;;4975718;28;21025;-80
2021/09/02 05:22:36;;;;;;;24.90;12.37;;;15.30;99.90;;;;;;4973887;28;20191;-80
2021/09/02 05:25:02;;;;;;;25.57;11.67;;;15.40;99.90;;;;;;4956622;28;20245;-79
2021/09/02 05:27:28;;;;;;;25.50;12.13;;;15.40;99.90;;;;;;4971503;28;20250;-80
2021/09/02 05:29:54;;;;;;;25.17;11.23;;;15.40;99.90;;;;;;4972215;28;20227;-80
2021/09/02 05:32:20;;;;;;;27.77;11.50;;;15.50;99.90;;;;;;4971783;28;20202;-79
2021/09/02 05:34:46;;;;;;;25.97;12.50;;;15.50;99.90;;;;;;4973085;28;20191;-79
2021/09/02 05:37:11;;;;;;;25.43;12.13;;;15.70;99.90;;;;;;4971269;28;20266;-80
2021/09/02 05:39:37;;;;;;;24.93;11.70;;;15.90;99.90;;;;;;4975247;28;20552;-80
2021/09/02 05:42:04;;;;;;;27.13;12.40;;;16.30;99.90;;;;;;4974976;28;20189;-79
2021/09/02 05:44:30;;;;;;;28.23;13.37;;;16.70;99.90;;;;;;4960676;28;20269;-80
2021/09/02 05:46:57;;;;;;;25.60;13.03;;;17.10;99.90;;;;;;4971340;28;20224;-81
2021/09/02 05:49:23;;;;;;;27.03;12.53;;;17.50;99.90;;;;;;4952728;28;20313;-81
2021/09/02 05:51:49;;;;;;;25.37;13.10;;;17.90;99.90;;;;;;4972437;28;20281;-81
2021/09/02 05:54:15;;;;;;;23.37;11.97;;;18.30;99.90;;;;;;4970291;28;20289;-81
2021/09/02 05:56:41;;;;;;;23.40;12.73;;;18.60;99.90;;;;;;4970799;28;20186;-82
2021/09/02 05:59:08;;;;;;;25.30;13.33;;;19.00;99.90;;;;;;4956373;28;20198;-81
2021/09/02 06:01:34;;;;;;;25.03;14.90;;;19.30;99.90;;;;;;4954912;28;20557;-81
2021/09/02 06:04:00;;;;;;;28.10;15.33;;;19.70;99.90;;;;;;4969568;28;20183;-82
2021/09/02 06:06:26;;;;;;;26.97;16.17;;;19.90;99.90;;;;;;4971042;28;20201;-81
2021/09/02 06:08:51;;;;;;;33.20;16.60;;;20.20;99.90;;;;;;4954628;28;20697;-82
2021/09/02 06:11:17;;;;;;;32.13;16.83;;;20.40;99.90;;;;;;4972237;28;20191;-81
2021/09/02 06:13:43;;;;;;;28.17;16.53;;;20.70;99.90;;;;;;4955991;28;20639;-81
2021/09/02 06:16:09;;;;;;;29.43;15.57;;;21.10;99.90;;;;;;4955365;28;20196;-79
2021/09/02 06:18:35;;;;;;;29.30;16.93;;;21.50;99.90;;;;;;4956572;28;20217;-79
2021/09/02 06:21:01;;;;;;;29.03;16.77;;;22.00;99.90;;;;;;4954545;28;22035;-79
2021/09/02 06:23:27;;;;;;;25.37;15.73;;;22.30;99.90;;;;;;4971564;28;20663;-80
2021/09/02 06:25:53;;;;;;;25.30;15.27;;;22.50;99.90;;;;;;4969175;28;20259;-80
2021/09/02 06:28:19;;;;;;;32.13;17.60;;;22.80;99.90;;;;;;4971639;28;20286;-80
2021/09/02 06:30:45;;;;;;;27.50;17.10;;;22.70;99.90;;;;;;4970496;28;20274;-80
2021/09/02 06:33:11;;;;;;;29.47;17.13;;;22.90;99.90;;;;;;4971226;28;20187;-80
2021/09/02 06:35:37;;;;;;;29.63;18.00;;;22.90;99.90;;;;;;4971805;28;20187;-81
2021/09/02 06:38:06;;;;;;;30.23;17.83;;;22.60;99.90;;;;;;4970595;28;20175;-81
2021/09/02 06:40:33;;;;;;;31.73;18.33;;;22.40;99.90;;;;;;4954047;28;20187;-82
2021/09/02 06:42:59;;;;;;;30.17;17.30;;;22.30;99.90;;;;;;4971334;28;20186;-80
2021/09/02 06:45:25;;;;;;;27.60;18.27;;;23.00;99.90;;;;;;4968227;28;20176;-81
2021/09/02 06:47:50;;;;;;;26.40;16.53;;;24.10;99.90;;;;;;4968636;28;20647;-81
2021/09/02 06:50:16;;;;;;;28.35;16.65;;;25.00;99.90;;;;;;4972303;28;20179;-81
2021/09/02 06:52:43;;;;;;;26.35;15.80;;;25.70;99.90;;;;;;4973637;28;20326;-81
2021/09/02 06:55:10;;;;;;;24.25;16.27;;;26.30;99.90;;;;;;4955885;28;20633;-82
2021/09/02 06:57:36;;;;;;;26.90;16.42;;;26.60;99.90;;;;;;4970624;28;20266;-81
2021/09/02 07:00:05;;;;;;;27.75;16.40;;;26.80;99.90;;;;;;4954837;28;20363;-81
2021/09/02 07:02:31;;;;;;;25.88;16.58;;;27.90;99.90;;;;;;4971806;28;20183;-81
2021/09/02 07:04:56;;;;;;;24.10;16.00;;;28.40;99.90;;;;;;4971097;28;20183;-81
2021/09/02 07:07:22;;;;;;;26.73;16.45;;;29.10;99.90;;;;;;4971393;28;20214;-81
2021/09/02 07:09:48;;;;;;;28.58;17.42;;;29.20;99.90;;;;;;4953802;28;20187;-81
2021/09/02 07:12:14;;;;;;;24.65;16.95;;;29.30;99.30;;;;;;4939214;28;20191;-81
2021/09/02 07:14:39;;;;;;;26.63;16.15;;;29.50;98.10;;;;;;4953278;28;20278;-81
2021/09/02 07:17:05;;;;;;;31.33;17.63;;;29.50;98.00;;;;;;4953699;28;20175;-81
2021/09/02 07:19:32;;;;;;;24.38;16.05;;;29.50;97.60;;;;;;4970086;28;20663;-81
2021/09/02 07:21:58;;;;;;;29.75;18.88;;;29.40;96.90;;;;;;4971666;28;20186;-82
2021/09/02 07:24:23;;;;;;;28.83;18.33;;;29.60;95.80;;;;;;4953589;28;20289;-81
2021/09/02 07:26:49;;;;;;;27.08;18.55;;;29.00;96.50;;;;;;4969430;28;20345;-81
2021/09/02 07:29:15;;;;;;;29.23;19.63;;;29.20;95.40;;;;;;4953348;28;20183;-81
2021/09/02 07:31:41;;;;;;;28.30;19.40;;;29.00;96.10;;;;;;4971517;28;20202;-82
2021/09/02 07:34:07;;;;;;;28.50;19.88;;;28.00;95.10;;;;;;4955526;28;20187;-81
2021/09/02 07:36:34;;;;;;;31.60;20.80;;;27.20;96.00;;;;;;4970588;28;20195;-80
2021/09/02 07:39:00;;;;;;;28.40;19.55;;;26.60;97.50;;;;;;4969959;28;20199;-81
2021/09/02 07:41:26;;;;;;;31.85;20.60;;;26.40;98.80;;;;;;4973964;28;20930;-80
2021/09/02 07:43:52;;;;;;;30.63;20.08;;;25.90;99.00;;;;;;4974119;28;20190;-80
2021/09/02 07:46:18;;;;;;;30.50;20.60;;;25.60;99.90;;;;;;4959502;28;20207;-81
2021/09/02 07:48:46;;;;;;;30.73;20.93;;;25.00;99.90;;;;;;4959757;28;20199;-81
2021/09/02 07:51:13;;;;;;;32.13;20.43;;;24.80;99.90;;;;;;4977095;28;20183;-81
2021/09/02 07:53:39;;;;;;;31.73;20.43;;;24.70;99.90;;;;;;4974571;28;20273;-81
2021/09/02 07:56:05;;;;;;;31.33;19.40;;;25.40;99.90;;;;;;4959684;28;20191;-80
2021/09/02 07:58:31;;;;;;;27.88;19.58;;;25.80;99.90;;;;;;4958501;28;20215;-81
2021/09/02 08:00:56;;;;;;;29.08;19.02;;;26.60;99.90;;;;;;4974129;28;20670;-81
2021/09/02 08:03:22;;;;;;;32.60;19.85;;;26.00;99.90;;;;;;4957905;28;20510;-81
2021/09/02 08:05:48;;;;;;;32.17;19.00;;;25.60;99.90;;;;;;4974702;28;20240;-82
2021/09/02 08:08:16;;;;;;;28.67;17.53;;;25.10;99.90;;;;;;4976336;28;20273;-82
2021/09/02 08:10:43;;;;;;;31.90;18.10;;;25.30;99.90;;;;;;4972868;28;20184;-82
2021/09/02 08:13:09;;;;;;;32.60;18.47;;;25.00;99.90;;;;;;4974812;28;20180;-82
2021/09/02 08:15:36;;;;;;;31.77;18.33;;;24.70;99.90;;;;;;4959003;28;20198;-82
2021/09/02 08:18:02;;;;;;;33.53;18.33;;;24.70;99.90;;;;;;4973477;28;20195;-82
2021/09/02 08:20:29;;;;;;;37.30;18.77;;;24.50;99.90;;;;;;4974146;28;20612;-82
2021/09/02 08:22:55;;;;;;;36.20;19.20;;;24.00;99.90;;;;;;4974874;28;20193;-81
2021/09/02 08:25:21;;;;;;;34.03;19.37;;;23.70;99.90;;;;;;4975069;28;20175;-82
2021/09/02 08:27:47;;;;;;;34.63;19.77;;;23.60;99.90;;;;;;4973172;28;20632;-82
2021/09/02 08:30:17;;;;;;;33.40;19.23;;;23.30;99.90;;;;;;4958532;28;20266;-82
2021/09/02 08:32:47;;;;;;;37.03;19.57;;;22.90;99.90;;;;;;4952206;28;20201;-82
2021/09/02 08:35:25;;;;;;;33.77;18.90;;;22.80;99.90;;;;;;4974522;28;20226;-82
2021/09/02 08:37:52;;;;;;;33.10;18.53;;;22.80;99.90;;;;;;4972885;28;20277;-82
2021/09/02 08:40:22;;;;;;;33.30;18.60;;;23.00;99.90;;;;;;4973088;28;20656;-83
2021/09/02 08:42:48;;;;;;;36.33;18.37;;;23.80;99.90;;;;;;4956601;28;20218;-82
2021/09/02 08:45:14;;;;;;;29.70;17.80;;;23.90;99.90;;;;;;4971905;28;20217;-82
2021/09/02 08:47:44;;;;;;;30.70;17.97;;;24.10;99.90;;;;;;4974975;28;20222;-82
2021/09/02 08:50:10;;;;;;;32.47;18.33;;;24.50;99.90;;;;;;4956862;28;20201;-81
2021/09/02 08:52:35;;;;;;;35.97;20.13;;;24.40;99.90;;;;;;4973020;28;20277;-82
2021/09/02 08:55:04;;;;;;;35.70;19.83;;;24.50;99.90;;;;;;4972607;28;20228;-81
2021/09/02 08:57:30;;;;;;;32.10;18.97;;;24.40;99.90;;;;;;4972921;28;20200;-81
2021/09/02 08:59:56;;;;;;;31.83;18.77;;;25.10;99.90;;;;;;4972726;28;20245;-80
2021/09/02 09:02:27;;;;;;;31.30;18.33;;;25.90;99.90;;;;;;4957360;28;20190;-81
2021/09/02 09:05:03;;;;;;;32.20;17.67;;;26.80;99.90;;;;;;4973138;28;20198;-81
2021/09/02 09:07:35;;;;;;;32.60;18.13;;;26.60;99.90;;;;;;4954898;28;20226;-81
2021/09/02 09:10:01;;;;;;;27.30;16.80;;;26.70;99.90;;;;;;4975367;28;20571;-82
2021/09/02 09:12:54;;;;;;;28.88;18.00;;;26.20;99.90;;;;;;4973062;28;20202;-81
2021/09/02 09:15:22;;;;;;;29.63;17.30;;;26.10;99.90;;;;;;4959736;28;20617;-81
2021/09/02 09:17:49;;;;;;;28.48;17.17;;;27.40;99.90;;;;;;4957723;28;20257;-82
2021/09/02 09:20:20;;;;;;;25.85;15.65;;;27.80;99.90;;;;;;4972629;28;20187;-82
2021/09/02 09:22:56;;;;;;;29.33;17.42;;;28.90;99.90;;;;;;4973529;28;20184;-81
2021/09/02 09:25:23;;;;;;;27.58;16.60;;;28.10;98.30;;;;;;4956401;28;20195;-82
2021/09/02 09:27:50;;;;;;;29.33;16.48;;;27.50;99.00;;;;;;4957921;28;20308;-82
2021/09/02 09:30:18;;;;;;;26.20;16.15;;;26.70;99.90;;;;;;4973084;28;20670;-82
2021/09/02 09:33:05;;;;;;;26.92;16.92;;;26.00;99.90;;;;;;4957401;28;20653;-81
2021/09/02 09:35:39;;;;;;;31.23;17.57;;;25.70;99.90;;;;;;4957961;28;20665;-82
2021/09/02 09:38:05;;;;;;;30.97;18.73;;;25.90;99.90;;;;;;4973052;28;20194;-81
2021/09/02 09:40:31;;;;;;;35.63;19.27;;;25.70;99.90;;;;;;4971733;28;20187;-80
2021/09/02 09:43:04;;;;;;;30.77;18.03;;;25.40;99.90;;;;;;4956831;28;20179;-80
2021/09/02 09:45:35;;;;;;;29.23;16.80;;;25.20;99.90;;;;;;4974929;28;20179;-79
2021/09/02 09:48:03;;;;;;;32.13;17.63;;;25.50;99.90;;;;;;4954957;28;20211;-81
2021/09/02 09:50:28;;;;;;;28.15;17.45;;;26.10;99.90;;;;;;4974696;28;20218;-79
2021/09/02 09:52:54;;;;;;;30.10;16.90;;;26.30;99.90;;;;;;4976490;28;20223;-81
2021/09/02 09:55:20;;;;;;;26.35;15.45;;;27.30;99.90;;;;;;4979217;28;20190;-80
2021/09/02 09:57:47;;;;;;;29.27;15.40;;;27.80;99.90;;;;;;4977395;28;20182;-81
2021/09/02 10:00:15;;;;;;;28.45;16.75;;;28.00;99.90;;;;;;4975446;28;20276;-81
2021/09/02 10:02:47;;;;;;;26.05;15.48;;;28.50;99.10;;;;;;4973473;28;20194;-80
2021/09/02 10:05:15;;;;;;;21.25;13.68;;;29.60;99.00;;;;;;4955050;28;20187;-81
2021/09/02 10:07:43;;;;;;;23.17;13.48;;;30.40;96.30;;;;;;4966354;28;20273;-81
2021/09/02 10:10:11;;;;;;;22.83;13.75;;;30.40;95.10;;;;;;4955598;28;20203;-81
2021/09/02 10:12:38;;;;;;;25.55;14.90;;;31.10;94.00;;;;;;4973461;28;20171;-81
2021/09/02 10:15:09;;;;;;;24.30;14.32;;;30.40;93.70;;;;;;4970806;28;20226;-80
2021/09/02 10:17:36;;;;;;;21.25;14.30;;;30.40;93.50;;;;;;4971249;28;20234;-81
2021/09/02 10:20:21;;;;;;;23.20;13.43;;;30.00;93.60;;;;;;4954319;28;20239;-81
2021/09/02 10:22:49;;;;;;;23.98;14.52;;;28.80;94.90;;;;;;4972168;28;20179;-80
2021/09/02 10:25:33;;;;;;;22.70;12.98;;;27.60;96.30;;;;;;4955723;28;20198;-79
2021/09/02 10:28:00;;;;;;;24.20;14.07;;;27.30;98.20;;;;;;4956354;28;20195;-80
2021/09/02 10:30:27;;;;;;;20.92;13.15;;;26.90;98.40;;;;;;4971593;28;20238;-81
2021/09/02 10:32:55;;;;;;;26.27;12.85;;;26.70;99.60;;;;;;4973222;28;20657;-81
2021/09/02 10:35:25;;;;;;;20.48;11.25;;;26.30;99.90;;;;;;4972983;28;20182;-81
2021/09/02 10:37:52;;;;;;;21.67;12.25;;;26.00;99.20;;;;;;4973531;28;20198;-81
2021/09/02 10:40:18;;;;;;;20.35;11.73;;;25.50;99.90;;;;;;4955020;28;20676;-81
2021/09/02 10:42:49;;;;;;;21.95;11.75;;;25.10;99.90;;;;;;4955483;28;20187;-80
2021/09/02 10:45:33;;;;;;;19.37;10.47;;;24.70;99.90;;;;;;4969156;28;20285;-81
2021/09/02 10:48:07;;;;;;;21.63;11.57;;;24.90;99.90;;;;;;4956385;28;20258;-81
2021/09/02 10:50:43;;;;;;;21.60;11.63;;;25.10;99.90;;;;;;4954751;28;20182;-81
2021/09/02 10:53:14;;;;;;;20.17;9.63;;;24.90;99.90;;;;;;4971885;28;20631;-81
2021/09/02 10:55:48;;;;;;;20.47;10.87;;;24.60;99.90;;;;;;4955816;28;20845;-82
2021/09/02 10:58:53;;;;;;;21.77;9.57;;;24.20;99.90;;;;;;4955625;28;20183;-81
2021/09/02 11:01:22;;;;;;;23.27;9.77;;;23.80;99.90;;;;;;4878474;29;20196;-81
2021/09/02 11:03:48;;;;;;;17.50;10.60;;;23.60;99.90;;;;;;4881032;29;20196;-81
2021/09/02 11:06:17;;;;;;;23.93;10.20;;;23.30;99.90;;;;;;4918626;28;20210;-81
2021/09/02 11:08:43;;;;;;;18.57;9.60;;;23.40;99.90;;;;;;4971931;28;20193;-82
2021/09/02 11:11:13;;;;;;;19.43;9.67;;;23.50;99.90;;;;;;4954757;28;20201;-81
2021/09/02 11:13:40;;;;;;;16.93;9.17;;;23.50;99.90;;;;;;4971253;28;20189;-81
2021/09/02 11:16:08;;;;;;;18.70;8.93;;;23.50;99.90;;;;;;4970978;28;20253;-81
2021/09/02 11:19:00;;;;;;;21.43;10.10;;;23.70;99.90;;;;;;4971415;28;20672;-82
2021/09/02 11:21:29;;;;;;;19.97;9.87;;;23.60;99.90;;;;;;4967383;28;20206;-82
2021/09/02 11:24:06;;;;;;;20.43;9.07;;;23.40;99.90;;;;;;4971269;28;20646;-81
2021/09/02 11:26:40;;;;;;;18.23;9.57;;;23.60;99.90;;;;;;4973490;28;20545;-81
2021/09/02 11:29:09;;;;;;;17.80;8.47;;;23.60;99.90;;;;;;4955998;28;20182;-81
2021/09/02 11:31:36;;;;;;;17.10;8.83;;;23.60;99.90;;;;;;4972283;28;20208;-82
2021/09/02 11:34:03;;;;;;;17.37;8.13;;;23.80;99.90;;;;;;4953745;28;20185;-82
2021/09/02 11:36:30;;;;;;;14.77;8.20;;;24.50;99.90;;;;;;4969401;28;20591;-81
2021/09/02 11:39:02;;;;;;;17.87;8.40;;;24.90;99.90;;;;;;4972980;28;20187;-82
2021/09/02 11:41:28;;;;;;;15.23;8.20;;;24.90;99.90;;;;;;4953540;28;20186;-82
2021/09/02 11:43:54;;;;;;;15.90;8.60;;;24.60;99.90;;;;;;4954643;28;20664;-81
2021/09/02 11:46:22;;;;;;;16.83;8.33;;;24.50;99.90;;;;;;4968814;28;20199;-81
2021/09/02 11:48:56;;;;;;;18.30;8.60;;;24.40;99.90;;;;;;4955864;28;20602;-81
2021/09/02 11:51:24;;;;;;;15.27;8.07;;;24.10;99.90;;;;;;4969223;28;20196;-82
2021/09/02 11:54:10;;;;;;;16.20;7.93;;;23.90;99.90;;;;;;4954061;28;20289;-80
2021/09/02 11:56:39;;;;;;;18.57;8.73;;;24.00;99.90;;;;;;4957035;28;20207;-80
2021/09/02 11:59:06;;;;;;;15.00;7.37;;;23.80;99.90;;;;;;4971494;28;20211;-81
2021/09/02 12:01:32;;;;;;;15.53;8.30;;;24.10;99.90;;;;;;4956068;28;20269;-80
2021/09/02 12:03:59;;;;;;;15.93;8.60;;;24.20;99.90;;;;;;4970098;28;20226;-81
2021/09/02 12:06:31;;;;;;;17.33;8.90;;;24.30;99.90;;;;;;4968539;28;20230;-82
2021/09/02 12:09:01;;;;;;;17.47;8.93;;;24.10;99.90;;;;;;4971811;28;20670;-81
2021/09/02 12:11:28;;;;;;;17.00;8.30;;;24.30;99.90;;;;;;4970639;28;20187;-81
2021/09/02 12:13:56;;;;;;;15.93;8.20;;;24.70;99.90;;;;;;4971210;28;20188;-81
2021/09/02 12:16:31;;;;;;;18.58;8.48;;;25.40;99.90;;;;;;4955611;28;20266;-81
2021/09/02 12:18:59;;;;;;;14.60;8.80;;;25.80;99.90;;;;;;4971093;28;20187;-81
2021/09/02 12:21:30;;;;;;;15.45;8.02;;;26.20;99.90;;;;;;4972442;28;20233;-80
2021/09/02 12:24:06;;;;;;;16.17;7.97;;;26.30;99.90;;;;;;4972104;28;20194;-82
2021/09/02 12:26:54;;;;;;;15.25;8.77;;;26.30;99.90;;;;;;4969384;28;20214;-81
2021/09/02 12:29:23;;;;;;;17.25;7.85;;;26.60;99.90;;;;;;4972685;28;20286;-81
2021/09/02 12:31:52;;;;;;;14.70;7.22;;;27.50;99.90;;;;;;4973085;28;20185;-82
2021/09/02 12:34:30;;;;;;;13.63;7.70;;;27.70;99.90;;;;;;4975455;28;20229;-82